LPFL Airport Information

Runway Information
Runway 18 Length 4593 ft width 98 ft
Elevation 98 ft Threshold 262 ft Heading 166
Runway 36 Length 4593 ft Width 98 ft
Elevation 107 ft Threshold 197 ft Heading 346
Airport Frequencies
Type TWR Name TWR Frequency 118.3 MHZ
Airport Navaids
Type NDB Name Flores Frequency 270 KHZ
Type VOR-DME Name Flores Frequency 113300 KHZ
Airport Weather Information & NOTAM
ADDS - METARS form results

(2153 UTC 09 December 2018)
Data provider http://aviationweather.gov/metar/data/
 
METAR text: LPFL 092130Z 18023G33KT 9999 BKN012 18/16 Q1019
Conditions at: LPFL (FLORES ISLAND , PT) observed 2130 UTC 09 December 2018
Temperature: 18.0°C (64°F)
Dewpoint: 16.0°C (61°F) [RH = 88%]
Pressure (altimeter): 30.09 inches Hg (1019.0 mb)
Winds: from the S (180 degrees) at 26 MPH (23 knots; 11.8 m/s)
gusting to 38 MPH (33 knots; 17.0 m/s)
Visibility: 6 or more miles (10+ km)
Ceiling: 1200 feet AGL
Clouds: broken clouds at 1200 feet AGL
Weather: no significant weather observed at this time

METAR text: LPFL 092100Z 18021G32KT 9999 BKN012 18/16 Q1019
Conditions at: LPFL (FLORES ISLAND , PT) observed 2100 UTC 09 December 2018
Temperature: 18.0°C (64°F)
Dewpoint: 16.0°C (61°F) [RH = 88%]
Pressure (altimeter): 30.09 inches Hg (1019.0 mb)
Winds: from the S (180 degrees) at 24 MPH (21 knots; 10.8 m/s)
gusting to 37 MPH (32 knots; 16.5 m/s)
Visibility: 6 or more miles (10+ km)
Ceiling: 1200 feet AGL
Clouds: broken clouds at 1200 feet AGL
Weather: no significant weather observed at this time